createdAt,value
2023-01-09T00:01:36.533Z,95.17
2023-01-09T00:04:39.249Z,95.21
2023-01-09T00:20:22.321Z,95.40
2023-01-09T00:23:39.286Z,95.29
2023-01-09T02:01:42.278Z,95.57
2023-01-09T02:04:56.161Z,95.43
2023-01-09T02:07:43.809Z,95.70
2023-01-09T02:10:45.491Z,95.55
2023-01-09T02:13:53.263Z,95.62
2023-01-09T02:17:08.717Z,95.49
2023-01-09T02:20:35.039Z,95.38
2023-01-09T02:57:26.474Z,95.67
2023-01-09T03:00:41.299Z,95.79
2023-01-09T03:03:33.779Z,95.58
2023-01-09T03:06:51.810Z,95.65
2023-01-09T03:41:53.444Z,95.62
2023-01-09T03:45:04.427Z,95.60
2023-01-09T05:03:19.994Z,95.73
2023-01-09T05:44:41.338Z,95.63
2023-01-09T06:58:24.755Z,95.80
2023-01-09T07:09:11.421Z,95.82
2023-01-09T07:18:36.678Z,96.10
2023-01-09T07:27:54.983Z,96.09
2023-01-09T07:30:29.847Z,95.99
2023-01-09T07:33:19.238Z,96.14
2023-01-09T07:35:55.090Z,96.06
2023-01-09T07:39:04.398Z,96.11
2023-01-09T08:26:56.684Z,96.26
2023-01-09T08:39:48.842Z,96.09
2023-01-09T08:43:33.045Z,95.99
2023-01-09T08:46:24.697Z,96.21
2023-01-09T08:57:21.028Z,96.14
2023-01-09T09:00:19.175Z,96.28
2023-01-09T09:02:54.150Z,96.28
2023-01-09T09:06:09.904Z,96.13
2023-01-09T09:09:24.928Z,96.20
2023-01-09T09:12:51.799Z,96.15
2023-01-09T09:16:36.867Z,96.28
2023-01-09T09:19:50.781Z,96.29
2023-01-09T09:22:35.562Z,96.27
2023-01-09T09:25:13.820Z,96.35
2023-01-09T09:28:08.774Z,96.49
2023-01-09T09:30:40.180Z,96.32
2023-01-09T09:33:11.446Z,96.33
2023-01-09T09:35:42.916Z,96.57
2023-01-09T09:38:15.431Z,96.51
2023-01-09T09:41:05.333Z,96.56
2023-01-09T09:44:06.707Z,96.73
2023-01-09T09:46:49.309Z,96.69
2023-01-09T09:49:30.097Z,96.87
2023-01-09T09:52:06.990Z,96.87
2023-01-09T09:55:06.941Z,96.76
2023-01-09T09:57:38.127Z,96.62
2023-01-09T10:00:10.076Z,96.70
2023-01-09T10:03:01.221Z,96.83
2023-01-09T10:05:38.734Z,96.66
2023-01-09T10:08:29.168Z,96.78
2023-01-09T10:11:05.049Z,96.81
2023-01-09T10:13:55.097Z,96.82
2023-01-09T10:16:48.239Z,96.97
2023-01-09T10:19:33.326Z,96.95
2023-01-09T10:22:25.126Z,96.73
2023-01-09T10:25:08.026Z,96.82
2023-01-09T10:27:58.634Z,96.92
2023-01-09T10:30:50.009Z,96.84
2023-01-09T10:33:19.122Z,96.62
2023-01-09T10:36:15.624Z,97.07
2023-01-09T10:38:51.620Z,96.80
2023-01-09T10:41:53.772Z,96.93
2023-01-09T10:44:30.772Z,96.73
2023-01-09T10:47:03.068Z,96.80
2023-01-09T10:49:33.484Z,96.73
2023-01-09T10:52:04.122Z,96.79
2023-01-09T10:54:34.339Z,96.87
2023-01-09T10:57:24.289Z,96.91
2023-01-09T11:00:24.098Z,97.02
2023-01-09T11:02:58.921Z,96.72
2023-01-09T11:05:53.117Z,96.77
2023-01-09T11:09:01.781Z,96.91
2023-01-09T11:11:53.847Z,96.95
2023-01-09T11:14:28.323Z,96.65
2023-01-09T11:17:05.440Z,96.80
2023-01-09T11:20:14.406Z,96.70
2023-01-09T11:22:48.097Z,96.98
2023-01-09T11:25:23.763Z,96.66
2023-01-09T11:28:05.650Z,96.84
2023-01-09T11:30:53.080Z,96.65
2023-01-09T11:33:27.141Z,96.55
2023-01-09T11:36:02.700Z,96.67
2023-01-09T11:38:34.235Z,96.86
2023-01-09T11:41:07.319Z,96.82
2023-01-09T11:43:42.572Z,96.57
2023-01-09T11:46:35.037Z,96.77
2023-01-09T11:49:16.412Z,96.64
2023-01-09T11:52:26.699Z,96.75
2023-01-09T11:54:58.891Z,96.62
2023-01-09T11:57:34.486Z,96.99
2023-01-09T12:00:21.875Z,96.93
2023-01-09T12:03:04.187Z,96.80
2023-01-09T12:05:55.578Z,96.89
2023-01-09T12:08:25.170Z,96.98
2023-01-09T12:11:11.710Z,96.72
2023-01-09T12:13:55.610Z,96.61
2023-01-09T12:16:47.493Z,96.82
2023-01-09T12:19:38.760Z,96.92
2023-01-09T12:25:51.897Z,96.86
2023-01-09T12:29:45.369Z,97.03
2023-01-09T12:33:35.537Z,96.74
2023-01-09T12:37:14.822Z,96.83
2023-01-09T12:39:53.808Z,96.74
2023-01-09T12:42:45.810Z,96.73
2023-01-09T12:45:35.085Z,97.05
2023-01-09T12:48:25.466Z,96.84
2023-01-09T12:51:08.069Z,97.00
2023-01-09T12:53:47.110Z,96.92
2023-01-09T12:56:23.367Z,97.09
2023-01-09T12:59:17.229Z,97.31
2023-01-09T13:01:49.752Z,97.22
2023-01-09T13:04:28.758Z,96.98
2023-01-09T13:07:26.570Z,97.19
2023-01-09T13:10:14.700Z,97.37
2023-01-09T13:12:47.450Z,97.35
2023-01-09T13:15:32.668Z,97.35
2023-01-09T13:18:08.829Z,97.21
2023-01-09T13:20:41.851Z,97.50
2023-01-09T13:23:49.164Z,97.25
2023-01-09T13:26:47.341Z,97.49
2023-01-09T13:29:51.611Z,97.26
2023-01-09T13:33:00.882Z,97.45
2023-01-09T13:37:06.684Z,97.22
2023-01-09T13:40:43.001Z,97.37
2023-01-09T13:43:16.130Z,97.28
2023-01-09T13:45:51.478Z,97.40
2023-01-09T13:48:30.421Z,97.29
2023-01-09T13:51:21.390Z,97.18
2023-01-09T13:54:32.378Z,97.32
2023-01-09T13:57:34.983Z,97.48
2023-01-09T14:03:26.758Z,97.54
2023-01-09T14:06:03.769Z,97.49
2023-01-09T14:08:34.412Z,97.51
2023-01-09T14:11:06.121Z,97.53
2023-01-09T14:13:38.619Z,97.34
2023-01-09T14:16:17.782Z,97.30
2023-01-09T14:19:14.513Z,97.71
2023-01-09T14:21:55.728Z,97.64
2023-01-09T14:36:12.939Z,97.88
2023-01-09T14:39:47.639Z,97.76
2023-01-09T14:43:11.230Z,97.41
2023-01-09T14:46:26.634Z,97.62
2023-01-09T14:49:08.728Z,97.70
2023-01-09T14:51:39.608Z,97.42
2023-01-09T14:54:28.508Z,97.67
2023-01-09T14:57:02.998Z,97.49
2023-01-09T14:59:32.356Z,97.80
2023-01-09T15:02:04.386Z,97.47
2023-01-09T15:04:37.200Z,97.67
2023-01-09T15:07:08.414Z,97.75
2023-01-09T15:09:46.422Z,97.79
2023-01-09T15:12:22.547Z,97.78
2023-01-09T15:14:54.845Z,97.73
2023-01-09T15:25:37.463Z,97.86
2023-01-09T15:29:26.830Z,97.75
2023-01-09T15:33:09.586Z,97.93
2023-01-09T15:36:57.249Z,97.75
2023-01-09T15:40:46.297Z,97.95
2023-01-09T15:44:51.927Z,97.93
2023-01-09T15:58:39.689Z,97.99
2023-01-09T16:02:10.197Z,98.03
2023-01-09T16:05:04.050Z,98.05
2023-01-09T16:08:15.959Z,98.08
2023-01-09T16:11:22.377Z,98.07
2023-01-09T16:13:58.780Z,97.93
2023-01-09T16:16:39.773Z,97.90
2023-01-09T16:19:29.962Z,98.26
2023-01-09T16:22:05.557Z,98.09
2023-01-09T16:24:43.462Z,98.05
2023-01-09T16:27:34.405Z,98.23
2023-01-09T16:30:07.773Z,98.36
2023-01-09T16:33:27.894Z,98.54
2023-01-09T16:36:14.877Z,98.44
2023-01-09T16:38:48.375Z,98.62
2023-01-09T16:41:40.467Z,98.54
2023-01-09T16:44:11.168Z,98.53
2023-01-09T16:46:45.327Z,98.81
2023-01-09T16:50:00.499Z,98.61
2023-01-09T16:54:05.686Z,98.90
2023-01-09T16:57:27.597Z,98.41
2023-01-09T17:00:44.855Z,99.04
2023-01-09T17:03:22.746Z,98.66
2023-01-09T17:05:55.565Z,98.76
2023-01-09T17:09:06.726Z,98.80
2023-01-09T17:12:06.916Z,98.78
2023-01-09T17:14:40.474Z,98.64
2023-01-09T17:17:13.710Z,98.66
2023-01-09T17:20:28.197Z,98.68
2023-01-09T17:23:47.138Z,98.57
2023-01-09T17:27:29.215Z,98.40
2023-01-09T17:29:59.342Z,98.83
2023-01-09T17:32:33.714Z,98.75
2023-01-09T17:35:12.530Z,98.95
2023-01-09T17:38:06.668Z,98.79
2023-01-09T17:40:40.034Z,98.63
2023-01-09T17:43:45.529Z,98.78
2023-01-09T17:46:49.712Z,98.72
2023-01-09T17:50:40.637Z,98.65
2023-01-09T17:54:02.311Z,98.79
2023-01-09T18:10:19.489Z,98.25
2023-01-09T18:12:52.150Z,98.60
2023-01-09T18:15:25.677Z,98.60
2023-01-09T18:17:58.442Z,98.53
2023-01-09T18:21:02.350Z,98.39
2023-01-09T18:24:09.257Z,98.35
2023-01-09T18:26:40.411Z,98.37
2023-01-09T18:29:14.341Z,98.18
2023-01-09T18:31:52.094Z,98.22
2023-01-09T18:34:26.707Z,98.24
2023-01-09T18:36:57.236Z,98.08
2023-01-09T18:40:00.016Z,98.26
2023-01-09T18:42:32.904Z,98.53
2023-01-09T18:45:07.275Z,98.45
2023-01-09T18:47:46.548Z,98.30
2023-01-09T18:50:39.898Z,98.13
2023-01-09T18:54:09.578Z,97.96
2023-01-09T18:57:22.778Z,97.85
2023-01-09T19:00:15.768Z,97.96
2023-01-09T19:03:38.410Z,97.82
2023-01-09T19:07:44.199Z,98.07
2023-01-09T19:18:25.162Z,98.16
2023-01-09T19:20:58.005Z,98.16
2023-01-09T19:23:31.629Z,98.02
2023-01-09T19:26:06.898Z,97.86
2023-01-09T19:28:45.343Z,98.25
2023-01-09T19:31:36.147Z,98.03
2023-01-09T19:34:09.997Z,98.00
2023-01-09T19:37:03.399Z,98.25
2023-01-09T19:39:42.171Z,98.39
2023-01-09T19:42:37.220Z,98.33
2023-01-09T19:46:04.242Z,98.46
2023-01-09T19:49:32.558Z,98.16
2023-01-09T20:00:19.119Z,98.42
2023-01-09T20:04:30.601Z,98.21
2023-01-09T20:08:15.186Z,98.21
2023-01-09T20:11:32.720Z,98.69
2023-01-09T20:15:14.993Z,98.47
2023-01-09T20:18:35.447Z,98.39
2023-01-09T20:22:03.085Z,98.41
2023-01-09T20:25:29.418Z,98.49
2023-01-09T20:28:36.765Z,98.27
2023-01-09T20:32:45.609Z,98.20
2023-01-09T20:36:36.613Z,98.12
2023-01-09T20:39:55.349Z,98.52
2023-01-09T20:42:49.271Z,98.39
2023-01-09T20:45:39.610Z,97.70
2023-01-09T20:48:13.916Z,97.89
2023-01-09T20:51:03.862Z,97.86
2023-01-09T20:53:58.985Z,97.94
2023-01-09T20:57:49.679Z,98.01
2023-01-09T21:00:51.732Z,98.36
2023-01-09T21:03:24.019Z,97.91
2023-01-09T21:05:56.319Z,98.08
2023-01-09T21:08:26.987Z,98.40
2023-01-09T21:11:17.731Z,98.43
2023-01-09T21:14:11.212Z,98.26
2023-01-09T21:16:41.690Z,98.25
2023-01-09T21:19:56.800Z,98.41
2023-01-09T21:22:53.063Z,98.21
2023-01-09T21:25:55.180Z,98.41
2023-01-09T21:28:47.000Z,98.24
2023-01-09T21:31:21.003Z,98.43
2023-01-09T21:34:17.768Z,98.36
2023-01-09T21:37:01.483Z,98.04
2023-01-09T21:40:21.562Z,98.22
2023-01-09T21:44:06.976Z,98.16
2023-01-09T21:47:14.154Z,98.49
2023-01-09T21:49:51.581Z,98.28
2023-01-09T21:52:34.288Z,98.27
2023-01-09T21:55:07.283Z,98.36
2023-01-09T21:57:40.443Z,98.15
2023-01-09T22:00:24.289Z,98.27
2023-01-09T22:02:53.207Z,98.31
2023-01-09T22:05:25.788Z,98.26
2023-01-09T22:07:57.272Z,98.37
2023-01-09T22:10:27.705Z,98.26
2023-01-09T22:13:16.413Z,98.28
2023-01-09T22:15:49.311Z,98.37
2023-01-09T22:18:21.232Z,98.56
2023-01-09T22:20:51.548Z,98.48
2023-01-09T22:23:21.840Z,98.67
2023-01-09T22:25:52.521Z,98.51
2023-01-09T22:28:31.871Z,98.50
2023-01-09T22:31:09.403Z,98.50
2023-01-09T22:33:45.551Z,98.48
2023-01-09T22:36:20.916Z,98.60
2023-01-09T22:38:57.794Z,98.61
2023-01-09T22:41:38.605Z,98.63
2023-01-09T22:44:14.443Z,98.54
2023-01-09T22:46:47.121Z,98.45
2023-01-09T22:49:19.050Z,98.39
2023-01-09T22:52:01.607Z,98.47
2023-01-09T22:54:37.517Z,98.71
2023-01-09T22:57:12.256Z,98.52
2023-01-09T22:59:47.172Z,98.37
2023-01-09T23:02:23.583Z,98.59
2023-01-09T23:04:58.916Z,98.71
2023-01-09T23:07:36.230Z,98.61
2023-01-09T23:10:12.853Z,98.63
2023-01-09T23:12:48.559Z,98.72
2023-01-09T23:15:19.463Z,98.50
2023-01-09T23:17:50.154Z,98.39
2023-01-09T23:20:22.801Z,98.40
2023-01-09T23:22:59.517Z,98.47
2023-01-09T23:25:31.777Z,98.47
2023-01-09T23:28:03.801Z,98.77
2023-01-09T23:30:35.926Z,98.65
2023-01-09T23:33:11.649Z,98.66
2023-01-09T23:35:42.179Z,98.78
2023-01-09T23:38:14.619Z,98.75
2023-01-09T23:40:44.104Z,98.61
2023-01-09T23:43:24.868Z,98.83
2023-01-09T23:45:57.642Z,98.67
2023-01-09T23:48:29.294Z,98.77
2023-01-09T23:51:00.225Z,98.96
2023-01-09T23:53:33.212Z,99.04
2023-01-09T23:56:04.326Z,98.82
2023-01-09T23:58:36.276Z,98.85
